Time;durP1;ratioP1;P1;durP2;ratioP2;P2;SDS_P1;SDS_P2;PMS_P1;PMS_P2;Temp;Humidity;BMP_temperature;BMP_pressure;BME280_temperature;BME280_humidity;BME280_pressure;Samples;Min_cycle;Max_cycle;Signal;HPM_P1;HPM_P2
2021/04/09 00:00:54;;;;;;;14.97;11.40;;;7.70;1.00;;;;;;5074837;28;20199;-78
2021/04/09 00:03:19;;;;;;;20.67;12.07;;;7.70;1.00;;;;;;5074571;28;20695;-76
2021/04/09 00:05:45;;;;;;;15.90;11.60;;;7.70;1.00;;;;;;5075096;28;20180;-79
2021/04/09 00:08:12;;;;;;;15.80;11.77;;;7.60;1.00;;;;;;5074944;28;20172;-78
2021/04/09 00:10:37;;;;;;;17.97;12.27;;;7.60;1.00;;;;;;5075070;28;20183;-77
2021/04/09 00:13:04;;;;;;;14.73;12.20;;;7.50;1.00;;;;;;5075007;28;20172;-76
2021/04/09 00:15:30;;;;;;;14.73;12.07;;;7.50;1.00;;;;;;5074605;28;20164;-80
2021/04/09 00:17:56;;;;;;;16.37;11.73;;;7.50;1.00;;;;;;5075000;28;20693;-76
2021/04/09 00:20:25;;;;;;;14.90;12.27;;;7.60;1.00;;;;;;5074623;28;20169;-76
2021/04/09 00:22:52;;;;;;;13.53;11.50;;;7.50;1.00;;;;;;5074442;28;20200;-80
2021/04/09 00:25:18;;;;;;;16.93;12.43;;;7.50;1.00;;;;;;5074638;28;20177;-82
2021/04/09 00:27:45;;;;;;;17.67;11.70;;;7.50;1.00;;;;;;5074300;28;20176;-78
2021/04/09 00:30:17;;;;;;;15.83;11.30;;;7.50;1.00;;;;;;5056221;28;20585;-76
2021/04/09 00:32:46;;;;;;;14.40;11.40;;;7.50;1.00;;;;;;5074464;28;20198;-82
2021/04/09 00:35:13;;;;;;;14.87;11.03;;;7.50;1.00;;;;;;5074311;28;20168;-77
2021/04/09 00:37:39;;;;;;;14.67;11.03;;;7.40;1.00;;;;;;5073997;28;20199;-75
2021/04/09 00:40:05;;;;;;;16.70;11.27;;;7.40;1.00;;;;;;5074207;28;20266;-76
2021/04/09 00:42:31;;;;;;;21.17;11.67;;;7.40;1.00;;;;;;5074223;28;20206;-80
2021/04/09 00:44:57;;;;;;;14.87;11.37;;;7.40;1.00;;;;;;5073665;28;20176;-77
2021/04/09 00:47:24;;;;;;;15.07;10.83;;;7.40;1.00;;;;;;5074187;28;20624;-75
2021/04/09 00:49:50;;;;;;;14.40;10.97;;;7.40;1.00;;;;;;5074044;28;20724;-75
2021/04/09 00:52:15;;;;;;;14.57;10.43;;;7.30;1.00;;;;;;5074106;28;20259;-82
2021/04/09 00:54:42;;;;;;;14.73;11.03;;;7.30;1.00;;;;;;5074030;28;20168;-80
2021/04/09 00:57:08;;;;;;;15.93;11.30;;;7.30;1.00;;;;;;5073969;28;20329;-78
2021/04/09 00:59:35;;;;;;;15.70;10.70;;;7.30;1.00;;;;;;5073702;28;20173;-83
2021/04/09 01:02:01;;;;;;;17.87;10.80;;;7.20;1.00;;;;;;5073902;28;20637;-76
2021/04/09 01:04:26;;;;;;;13.57;10.53;;;7.20;1.00;;;;;;5073966;28;20216;-76
2021/04/09 01:06:52;;;;;;;12.40;10.43;;;7.20;1.00;;;;;;5073432;28;20169;-75
2021/04/09 01:09:18;;;;;;;12.90;9.73;;;7.20;1.00;;;;;;5073731;28;20176;-76
2021/04/09 01:11:44;;;;;;;14.23;11.10;;;7.20;1.00;;;;;;5073545;28;20476;-85
2021/04/09 01:14:09;;;;;;;15.53;11.13;;;7.20;1.00;;;;;;5073507;28;20255;-84
2021/04/09 01:17:06;;;;;;;13.47;10.27;;;7.10;1.00;;;;;;5073844;28;20534;-76
2021/04/09 01:19:58;;;;;;;13.00;10.43;;;7.10;1.00;;;;;;5073712;28;20183;-75
2021/04/09 01:22:27;;;;;;;18.07;10.30;;;7.10;1.00;;;;;;5074527;28;20167;-82
2021/04/09 01:25:24;;;;;;;16.63;11.70;;;7.10;1.00;;;;;;5074976;28;20249;-79
2021/04/09 01:28:16;;;;;;;15.60;12.07;;;7.40;1.00;;;;;;5076141;28;20558;-78
2021/04/09 01:30:52;;;;;;;12.43;10.60;;;7.50;1.00;;;;;;5077864;28;20643;-78
2021/04/09 01:33:20;;;;;;;16.40;11.83;;;7.40;1.00;;;;;;5078089;28;20179;-79
2021/04/09 01:35:49;;;;;;;14.83;10.97;;;7.40;1.00;;;;;;5074156;28;20169;-76
2021/04/09 01:38:19;;;;;;;13.40;10.27;;;7.10;1.00;;;;;;5073019;28;20172;-80
2021/04/09 01:40:47;;;;;;;13.97;10.47;;;6.90;1.00;;;;;;5073230;28;20175;-81
2021/04/09 01:43:17;;;;;;;19.63;11.57;;;6.90;1.00;;;;;;5073054;28;20196;-75
2021/04/09 01:45:43;;;;;;;15.77;11.40;;;6.90;1.00;;;;;;5073991;28;20172;-80
2021/04/09 01:48:11;;;;;;;15.70;10.90;;;6.80;1.00;;;;;;5078561;28;20168;-78
2021/04/09 01:50:37;;;;;;;14.53;10.93;;;6.70;1.00;;;;;;5074155;28;20195;-77
2021/04/09 01:53:05;;;;;;;13.80;10.30;;;6.60;1.00;;;;;;5073189;28;20160;-76
2021/04/09 01:55:34;;;;;;;12.67;10.27;;;6.60;1.00;;;;;;5072967;28;20192;-79
2021/04/09 01:58:02;;;;;;;16.07;11.37;;;6.70;1.00;;;;;;5073057;28;20255;-83
2021/04/09 02:00:30;;;;;;;13.30;10.13;;;6.70;1.00;;;;;;5072862;28;20173;-77
2021/04/09 02:02:58;;;;;;;16.60;11.57;;;6.70;1.00;;;;;;5055381;28;20319;-76
2021/04/09 02:05:26;;;;;;;14.17;11.33;;;6.60;1.00;;;;;;5072786;28;20239;-80
2021/04/09 02:07:55;;;;;;;16.13;11.23;;;6.70;1.00;;;;;;5072763;28;20164;-75
2021/04/09 02:10:21;;;;;;;15.67;11.20;;;6.70;1.00;;;;;;5073069;28;20177;-77
2021/04/09 02:12:48;;;;;;;14.20;11.30;;;6.60;1.00;;;;;;5072370;28;20255;-76
2021/04/09 02:15:20;;;;;;;16.67;11.63;;;6.40;1.00;;;;;;5072917;28;20164;-79
2021/04/09 02:17:46;;;;;;;14.80;11.30;;;6.30;1.00;;;;;;5056151;28;20202;-76
2021/04/09 02:20:17;;;;;;;14.27;11.30;;;6.30;1.00;;;;;;5076851;28;20640;-82
2021/04/09 02:22:44;;;;;;;16.90;11.97;;;6.30;1.00;;;;;;5077003;28;20168;-82
2021/04/09 02:25:12;;;;;;;16.20;11.13;;;6.20;1.00;;;;;;5077017;28;20168;-78
2021/04/09 02:27:38;;;;;;;14.37;11.13;;;6.20;1.00;;;;;;5076327;28;20648;-81
2021/04/09 02:30:08;;;;;;;16.43;11.47;;;6.10;1.00;;;;;;5076742;28;20165;-77
2021/04/09 02:32:34;;;;;;;15.93;11.30;;;6.20;1.00;;;;;;5075908;28;20172;-75
2021/04/09 02:35:00;;;;;;;15.57;10.23;;;6.10;1.00;;;;;;5076822;28;20172;-78
2021/04/09 02:37:26;;;;;;;16.03;10.50;;;6.10;1.00;;;;;;5076702;28;20247;-77
2021/04/09 02:39:57;;;;;;;17.77;11.43;;;6.10;1.00;;;;;;5076784;28;20173;-77
2021/04/09 02:42:24;;;;;;;16.37;11.03;;;6.10;1.00;;;;;;5076162;28;20165;-75
2021/04/09 02:44:51;;;;;;;12.67;10.67;;;6.10;1.00;;;;;;5076420;28;20176;-76
2021/04/09 02:47:30;;;;;;;15.27;11.30;;;6.10;1.00;;;;;;5058371;28;20176;-76
2021/04/09 02:50:32;;;;;;;15.87;10.27;;;6.10;1.00;;;;;;5075921;28;20199;-78
2021/04/09 02:53:06;;;;;;;15.23;11.10;;;6.10;1.00;;;;;;5045060;28;20184;-75
2021/04/09 02:55:40;;;;;;;16.37;11.03;;;6.10;1.00;;;;;;5058170;28;20184;-81
2021/04/09 02:58:07;;;;;;;17.80;12.33;;;6.20;1.00;;;;;;5076409;28;20649;-77
2021/04/09 03:00:36;;;;;;;17.20;10.97;;;6.30;1.00;;;;;;5076250;28;20168;-77
2021/04/09 03:03:05;;;;;;;17.20;10.90;;;6.30;1.00;;;;;;5076121;28;20239;-74
2021/04/09 03:05:32;;;;;;;13.27;10.60;;;6.40;1.00;;;;;;5076129;28;20241;-78
2021/04/09 03:07:59;;;;;;;14.13;10.53;;;6.30;1.00;;;;;;5076211;28;20247;-78
2021/04/09 03:10:25;;;;;;;15.37;10.43;;;6.30;1.00;;;;;;5075876;28;20758;-82
2021/04/09 03:12:51;;;;;;;14.60;10.40;;;6.20;1.00;;;;;;5058102;28;20583;-81
2021/04/09 03:15:42;;;;;;;17.97;11.33;;;6.20;1.00;;;;;;5076067;28;20259;-76
2021/04/09 03:18:10;;;;;;;16.40;10.97;;;6.20;1.00;;;;;;5064420;28;20180;-85
2021/04/09 03:20:37;;;;;;;15.13;10.70;;;6.20;1.00;;;;;;5076090;28;20164;-77
2021/04/09 03:23:04;;;;;;;15.40;9.87;;;6.30;1.00;;;;;;5076233;28;20234;-82
2021/04/09 03:25:30;;;;;;;17.07;10.70;;;6.30;1.00;;;;;;5075425;28;20251;-77
2021/04/09 03:27:56;;;;;;;15.63;10.77;;;6.40;1.00;;;;;;5075292;28;20212;-78
2021/04/09 03:30:23;;;;;;;16.03;10.57;;;6.50;1.00;;;;;;5075627;28;20222;-75
2021/04/09 03:32:49;;;;;;;15.47;11.43;;;6.50;1.00;;;;;;5075674;28;20169;-83
2021/04/09 03:35:16;;;;;;;18.33;11.33;;;6.40;1.00;;;;;;5075379;28;20230;-76
2021/04/09 03:37:42;;;;;;;12.90;10.33;;;6.40;1.00;;;;;;5077417;28;20161;-79
2021/04/09 03:40:09;;;;;;;18.57;10.60;;;6.40;1.00;;;;;;5081832;28;20168;-82
2021/04/09 03:42:35;;;;;;;14.50;10.73;;;6.30;1.00;;;;;;5076850;28;20192;-79
2021/04/09 03:45:00;;;;;;;14.50;10.77;;;6.30;1.00;;;;;;5075488;28;20242;-75
2021/04/09 03:47:26;;;;;;;19.30;10.80;;;6.20;1.00;;;;;;5075457;28;20168;-77
2021/04/09 03:49:52;;;;;;;14.47;10.63;;;6.10;1.00;;;;;;5057380;28;20192;-76
2021/04/09 03:52:17;;;;;;;18.63;11.10;;;6.10;1.00;;;;;;5075517;28;20161;-81
2021/04/09 03:54:43;;;;;;;15.50;10.80;;;6.20;1.00;;;;;;5079858;28;20868;-80
2021/04/09 03:57:09;;;;;;;15.93;10.13;;;6.30;1.00;;;;;;5078675;28;20168;-78
2021/04/09 03:59:34;;;;;;;18.80;10.87;;;6.20;1.00;;;;;;5075260;28;20215;-79
2021/04/09 04:02:01;;;;;;;14.97;10.33;;;6.30;1.00;;;;;;5074848;28;20646;-82
2021/04/09 04:04:26;;;;;;;17.63;10.83;;;6.30;1.00;;;;;;5074696;28;20211;-79
2021/04/09 04:06:52;;;;;;;18.03;10.70;;;6.40;1.00;;;;;;5074584;28;20517;-79
2021/04/09 04:09:18;;;;;;;15.63;10.67;;;6.30;1.00;;;;;;5074388;28;20164;-80
2021/04/09 04:11:44;;;;;;;16.83;9.30;;;6.20;1.00;;;;;;5075068;28;20172;-83
2021/04/09 04:14:09;;;;;;;14.40;9.90;;;6.20;1.00;;;;;;5075178;28;20175;-78
2021/04/09 04:16:35;;;;;;;15.90;9.67;;;6.30;1.00;;;;;;5057299;28;20179;-74
2021/04/09 04:19:01;;;;;;;15.70;10.17;;;6.20;1.00;;;;;;5075127;28;20207;-81
2021/04/09 04:21:27;;;;;;;16.23;10.73;;;6.20;1.00;;;;;;5074758;28;20164;-81
2021/04/09 04:23:53;;;;;;;18.47;9.67;;;6.30;1.00;;;;;;5074245;28;20207;-83
2021/04/09 04:26:19;;;;;;;16.63;10.10;;;6.30;1.00;;;;;;5074490;28;20671;-85
2021/04/09 04:28:45;;;;;;;21.67;11.20;;;6.40;1.00;;;;;;5074334;28;20183;-82
2021/04/09 04:31:11;;;;;;;19.57;10.43;;;6.50;1.00;;;;;;5074432;28;20168;-78
2021/04/09 04:33:37;;;;;;;16.93;10.80;;;6.50;1.00;;;;;;5074422;28;20699;-77
2021/04/09 04:36:03;;;;;;;17.30;10.67;;;6.60;1.00;;;;;;5074184;28;20252;-76
2021/04/09 04:38:29;;;;;;;16.27;11.03;;;6.30;1.00;;;;;;5074117;28;20176;-75
2021/04/09 04:40:55;;;;;;;18.13;11.77;;;6.30;1.00;;;;;;5055611;28;20168;-80
2021/04/09 04:43:21;;;;;;;19.30;11.70;;;6.40;1.00;;;;;;5074344;28;20196;-79
2021/04/09 04:45:47;;;;;;;23.77;13.27;;;6.40;1.00;;;;;;5056651;28;20263;-76
2021/04/09 04:48:13;;;;;;;22.87;13.07;;;6.40;1.00;;;;;;5074355;28;20171;-76
2021/04/09 04:50:39;;;;;;;21.90;12.33;;;6.40;1.00;;;;;;5074069;28;20192;-75
2021/04/09 04:53:06;;;;;;;19.47;12.30;;;6.50;1.00;;;;;;5073702;28;20165;-82
2021/04/09 04:55:32;;;;;;;17.20;12.17;;;6.50;1.00;;;;;;5073924;28;20165;-79
2021/04/09 04:57:58;;;;;;;20.47;12.90;;;6.60;1.00;;;;;;5074047;28;20165;-78
2021/04/09 05:00:24;;;;;;;17.97;11.50;;;6.60;1.00;;;;;;5073525;28;20168;-81
2021/04/09 05:02:49;;;;;;;18.87;12.53;;;6.80;1.00;;;;;;5073809;28;22132;-76
2021/04/09 05:05:15;;;;;;;19.87;13.27;;;6.90;1.00;;;;;;5073417;28;20593;-81
2021/04/09 05:07:40;;;;;;;22.17;13.23;;;6.90;1.00;;;;;;5074181;28;20208;-85
2021/04/09 05:10:07;;;;;;;25.77;14.20;;;6.90;1.00;;;;;;5073877;28;20543;-84
2021/04/09 05:12:33;;;;;;;21.20;14.07;;;6.80;1.00;;;;;;5073856;28;20172;-81
2021/04/09 05:14:59;;;;;;;22.17;15.20;;;6.90;1.00;;;;;;5055850;28;20187;-85
2021/04/09 05:17:25;;;;;;;25.37;14.03;;;6.70;1.00;;;;;;5073586;28;20165;-79
2021/04/09 05:19:51;;;;;;;28.60;15.17;;;6.70;1.00;;;;;;5072861;28;20172;-76
2021/04/09 05:22:16;;;;;;;26.33;14.87;;;6.60;1.00;;;;;;5055618;28;20172;-80
2021/04/09 05:24:42;;;;;;;22.83;13.73;;;6.50;1.00;;;;;;5073095;28;20341;-76
2021/04/09 05:27:08;;;;;;;23.67;15.40;;;6.60;1.00;;;;;;5075913;28;20190;-78
2021/04/09 05:29:36;;;;;;;26.03;15.23;;;6.40;1.00;;;;;;5074208;28;20191;-83
2021/04/09 05:32:05;;;;;;;23.90;15.10;;;6.40;1.00;;;;;;5073467;28;20172;-84
2021/04/09 05:34:30;;;;;;;26.80;15.33;;;6.40;1.00;;;;;;5073170;28;20255;-78
2021/04/09 05:36:56;;;;;;;24.57;16.00;;;6.40;1.00;;;;;;5073491;28;20198;-76
2021/04/09 05:39:22;;;;;;;24.97;15.67;;;6.40;1.00;;;;;;5073128;28;20164;-76
2021/04/09 05:41:47;;;;;;;27.43;15.03;;;6.40;1.00;;;;;;5073202;28;20168;-76
2021/04/09 05:44:13;;;;;;;26.40;15.97;;;6.40;1.00;;;;;;5073441;28;20203;-78
2021/04/09 05:46:38;;;;;;;28.17;16.33;;;6.50;1.00;;;;;;5073288;28;20175;-80
2021/04/09 05:49:04;;;;;;;25.60;15.87;;;6.50;1.00;;;;;;5073120;28;20274;-78
2021/04/09 05:51:30;;;;;;;29.03;15.40;;;6.40;1.00;;;;;;5054862;28;20196;-81
2021/04/09 05:53:56;;;;;;;27.87;16.40;;;6.40;1.00;;;;;;5073286;28;20176;-77
2021/04/09 05:56:21;;;;;;;27.80;15.33;;;6.50;1.00;;;;;;5072801;28;20293;-82
2021/04/09 05:58:47;;;;;;;27.93;16.67;;;6.70;1.00;;;;;;5073398;28;20221;-76
2021/04/09 06:01:13;;;;;;;24.63;16.37;;;6.70;1.00;;;;;;5072543;28;20176;-75
2021/04/09 06:03:38;;;;;;;25.67;15.87;;;6.90;1.00;;;;;;5072808;28;20615;-78
2021/04/09 06:06:04;;;;;;;26.53;16.07;;;7.20;1.00;;;;;;5072803;28;20193;-76
2021/04/09 06:08:30;;;;;;;23.33;15.23;;;7.30;1.00;;;;;;5072730;28;20259;-79
2021/04/09 06:10:55;;;;;;;31.50;17.07;;;7.20;1.00;;;;;;5072737;28;20543;-84
2021/04/09 06:13:21;;;;;;;27.97;15.67;;;7.10;1.00;;;;;;5072621;28;20203;-78
2021/04/09 06:15:46;;;;;;;24.20;15.77;;;7.00;1.00;;;;;;5072497;28;20179;-82
2021/04/09 06:18:12;;;;;;;24.77;15.67;;;7.20;1.00;;;;;;5072210;28;20259;-79
2021/04/09 06:20:38;;;;;;;29.00;16.10;;;7.40;1.00;;;;;;5072240;28;20172;-78
2021/04/09 06:23:03;;;;;;;27.53;15.50;;;7.40;1.00;;;;;;5072483;28;20212;-76
2021/04/09 06:25:30;;;;;;;28.03;16.60;;;7.40;1.00;;;;;;5072848;28;20195;-79
2021/04/09 06:27:55;;;;;;;22.43;14.77;;;7.40;1.00;;;;;;5072698;28;20685;-83
2021/04/09 06:30:21;;;;;;;25.50;15.17;;;7.30;1.00;;;;;;5072575;28;20172;-77
2021/04/09 06:32:47;;;;;;;23.63;13.53;;;7.20;1.00;;;;;;5072449;28;20176;-77
2021/04/09 06:35:14;;;;;;;26.60;14.90;;;7.20;1.00;;;;;;5072306;28;20226;-82
2021/04/09 06:37:41;;;;;;;23.33;15.43;;;7.20;1.00;;;;;;5071983;28;20180;-80
2021/04/09 06:40:10;;;;;;;26.60;15.73;;;7.20;1.00;;;;;;5072421;28;20247;-82
2021/04/09 06:42:36;;;;;;;24.40;15.23;;;7.40;1.00;;;;;;5054721;28;20185;-81
2021/04/09 06:45:04;;;;;;;23.77;14.93;;;7.50;1.00;;;;;;5072763;28;20172;-83
2021/04/09 06:47:32;;;;;;;24.53;14.53;;;7.50;1.00;;;;;;5072096;28;20241;-78
2021/04/09 06:49:58;;;;;;;20.87;13.90;;;7.60;1.00;;;;;;5072628;28;20604;-76
2021/04/09 06:52:27;;;;;;;19.23;13.40;;;7.60;1.00;;;;;;5073084;28;20605;-78
2021/04/09 06:54:53;;;;;;;19.53;12.33;;;7.80;1.00;;;;;;5072699;28;20188;-79
2021/04/09 06:57:19;;;;;;;25.07;13.70;;;7.70;1.00;;;;;;5072042;28;20168;-83
2021/04/09 06:59:46;;;;;;;19.17;12.67;;;7.80;1.00;;;;;;5072249;28;20238;-80
2021/04/09 07:02:16;;;;;;;18.37;12.47;;;7.70;1.00;;;;;;5073164;28;20247;-78
2021/04/09 07:04:43;;;;;;;19.43;12.57;;;7.90;1.00;;;;;;5075543;28;20714;-80
2021/04/09 07:07:14;;;;;;;19.67;12.90;;;7.90;1.00;;;;;;5084786;28;20221;-79
2021/04/09 07:09:41;;;;;;;21.83;12.00;;;7.80;1.00;;;;;;5084720;28;20259;-84
2021/04/09 07:12:07;;;;;;;20.53;11.03;;;7.90;1.00;;;;;;5057252;28;20172;-85
2021/04/09 07:14:53;;;;;;;22.53;11.70;;;8.10;1.00;;;;;;5091026;28;20666;-80
2021/04/09 07:17:26;;;;;;;18.57;11.77;;;8.10;1.00;;;;;;5077065;28;20553;-82
2021/04/09 07:20:19;;;;;;;23.47;13.03;;;8.10;1.00;;;;;;5095703;28;20159;-78
2021/04/09 07:22:49;;;;;;;21.60;13.03;;;8.30;1.00;;;;;;5082237;28;20196;-83
2021/04/09 07:25:42;;;;;;;20.53;11.90;;;8.60;1.00;;;;;;5075782;28;20200;-83
2021/04/09 07:28:08;;;;;;;16.03;10.83;;;8.50;1.00;;;;;;5071598;28;20283;-86
2021/04/09 07:30:34;;;;;;;18.07;11.63;;;8.40;1.00;;;;;;5075672;28;20196;-87
2021/04/09 07:33:04;;;;;;;17.20;10.63;;;8.40;1.00;;;;;;5075336;28;20196;-87
2021/04/09 07:35:30;;;;;;;18.20;9.87;;;8.40;1.00;;;;;;5075627;28;20172;-84
2021/04/09 07:37:58;;;;;;;16.03;10.77;;;8.50;1.00;;;;;;5075171;28;20182;-81
2021/04/09 07:40:28;;;;;;;18.03;10.53;;;8.40;1.00;;;;;;5074983;28;20544;-81
2021/04/09 07:42:55;;;;;;;17.37;10.83;;;8.50;1.00;;;;;;5094940;28;20174;-85
2021/04/09 07:45:21;;;;;;;17.73;13.13;;;8.50;1.00;;;;;;5095209;28;20163;-81
2021/04/09 07:47:59;;;;;;;15.27;10.13;;;8.60;1.00;;;;;;5095870;28;20164;-83
2021/04/09 07:50:47;;;;;;;14.23;9.87;;;8.70;1.00;;;;;;5095058;28;20562;-86
2021/04/09 07:53:36;;;;;;;14.30;8.80;;;8.80;1.00;;;;;;5094595;28;20172;-80
2021/04/09 07:56:06;;;;;;;13.30;8.80;;;8.80;1.00;;;;;;5095288;28;20237;-83
2021/04/09 07:58:36;;;;;;;15.30;9.97;;;8.80;1.00;;;;;;5095367;28;20186;-85
2021/04/09 08:01:03;;;;;;;16.73;10.03;;;9.00;1.00;;;;;;5095223;28;20589;-85
2021/04/09 08:03:35;;;;;;;13.30;9.27;;;9.00;1.00;;;;;;5095365;28;20268;-87
2021/04/09 08:06:12;;;;;;;14.37;9.87;;;9.10;1.00;;;;;;5095903;28;20167;-80
2021/04/09 08:08:40;;;;;;;17.50;10.00;;;9.20;1.00;;;;;;5086044;28;20172;-81
2021/04/09 08:11:19;;;;;;;17.47;10.43;;;9.40;1.00;;;;;;5082005;28;20203;-77
2021/04/09 08:13:55;;;;;;;15.80;9.20;;;9.50;1.00;;;;;;5065272;28;20624;-77
2021/04/09 08:16:37;;;;;;;14.73;9.27;;;9.60;99.90;;;;;;5077699;28;20247;-85
2021/04/09 08:19:23;;;;;;;16.37;9.87;;;9.70;1.00;;;;;;5094510;28;20163;-77
2021/04/09 08:21:54;;;;;;;15.77;9.30;;;9.60;1.00;;;;;;5095502;28;20253;-82
2021/04/09 08:24:25;;;;;;;18.03;9.20;;;9.70;1.00;;;;;;5088705;28;20212;-80
2021/04/09 08:26:51;;;;;;;17.57;10.33;;;9.70;1.00;;;;;;5089665;28;20171;-79
2021/04/09 08:29:18;;;;;;;17.13;9.47;;;9.80;1.00;;;;;;5094309;28;20511;-78
2021/04/09 08:31:45;;;;;;;14.43;10.00;;;9.80;1.00;;;;;;5093945;28;20187;-80
2021/04/09 08:34:13;;;;;;;10.90;8.20;;;9.80;1.00;;;;;;5076681;28;20262;-83
2021/04/09 08:36:42;;;;;;;15.50;9.20;;;9.80;1.00;;;;;;5095517;28;20178;-80
2021/04/09 08:39:09;;;;;;;12.33;8.57;;;9.90;1.00;;;;;;5095397;28;20172;-79
2021/04/09 08:41:39;;;;;;;12.53;8.70;;;9.90;1.00;;;;;;5087121;28;20207;-82
2021/04/09 08:44:09;;;;;;;13.20;8.50;;;10.00;99.90;;;;;;5088928;28;20215;-78
2021/04/09 08:46:36;;;;;;;13.97;8.87;;;9.90;1.00;;;;;;5095298;28;20230;-83
2021/04/09 08:49:03;;;;;;;12.70;8.60;;;9.90;1.00;;;;;;5094426;28;20202;-80
2021/04/09 08:51:30;;;;;;;12.73;8.33;;;10.10;1.00;;;;;;5093580;28;20636;-78
2021/04/09 08:54:15;;;;;;;14.63;8.57;;;10.10;99.90;;;;;;5093375;28;20255;-77
2021/04/09 08:56:42;;;;;;;13.23;8.03;;;10.10;99.90;;;;;;5093305;28;20665;-78
2021/04/09 08:59:07;;;;;;;15.63;8.93;;;10.10;99.90;;;;;;5093472;28;20182;-78
2021/04/09 09:01:33;;;;;;;13.77;8.50;;;10.10;99.90;;;;;;5075018;28;20274;-79
2021/04/09 09:04:17;;;;;;;13.40;8.23;;;10.10;99.90;;;;;;5093367;28;20204;-79
2021/04/09 09:06:43;;;;;;;12.57;7.87;;;10.20;99.90;;;;;;5093243;28;20698;-82
2021/04/09 09:09:09;;;;;;;9.23;7.17;;;10.40;99.90;;;;;;5093234;28;20244;-78
2021/04/09 09:11:49;;;;;;;10.73;8.13;;;10.40;99.90;;;;;;5093326;28;20597;-80
2021/04/09 09:14:33;;;;;;;11.57;8.03;;;10.40;99.90;;;;;;5074985;28;20221;-80
2021/04/09 09:17:20;;;;;;;13.97;8.47;;;10.50;99.90;;;;;;5079729;28;20168;-82
2021/04/09 09:19:45;;;;;;;11.53;8.20;;;10.60;99.90;;;;;;5070089;28;20337;-79
2021/04/09 09:22:15;;;;;;;14.50;8.57;;;10.70;99.90;;;;;;5086575;28;20212;-81
2021/04/09 09:25:07;;;;;;;11.20;8.60;;;10.80;99.90;;;;;;5093607;28;20666;-83
2021/04/09 09:27:52;;;;;;;11.07;7.73;;;10.90;99.90;;;;;;5089504;28;20236;-81
2021/04/09 09:30:36;;;;;;;11.10;7.50;;;11.00;5.00;;;;;;5093108;28;20266;-83
2021/04/09 09:33:21;;;;;;;10.70;7.63;;;11.00;20.70;;;;;;5093310;28;20171;-85
2021/04/09 09:35:58;;;;;;;10.37;6.90;;;10.90;1.00;;;;;;5093630;28;20185;-80
2021/04/09 09:38:55;;;;;;;10.93;6.57;;;10.90;40.60;;;;;;5094277;28;20171;-80
2021/04/09 09:41:44;;;;;;;10.60;6.83;;;10.90;57.00;;;;;;5074808;28;20602;-85
2021/04/09 09:44:39;;;;;;;10.53;6.97;;;11.20;1.00;;;;;;5092752;28;20222;-79
2021/04/09 09:47:14;;;;;;;11.70;6.73;;;10.90;99.90;;;;;;5057106;28;20183;-84
2021/04/09 09:50:00;;;;;;;10.30;6.43;;;11.00;99.90;;;;;;5093286;28;20167;-78
2021/04/09 09:52:42;;;;;;;12.73;7.13;;;11.20;99.90;;;;;;5093121;28;20201;-78
2021/04/09 09:55:22;;;;;;;11.73;7.10;;;11.40;1.00;;;;;;5092711;28;20239;-79
2021/04/09 09:58:09;;;;;;;9.77;6.77;;;11.50;1.00;;;;;;5092853;28;20218;-81
2021/04/09 10:00:37;;;;;;;9.53;6.40;;;11.60;99.90;;;;;;5093031;28;20168;-85
2021/04/09 10:03:17;;;;;;;9.27;6.50;;;11.70;1.00;;;;;;5093394;28;20199;-80
2021/04/09 10:05:51;;;;;;;7.77;5.70;;;11.60;14.60;;;;;;5093090;28;20244;-82
2021/04/09 10:08:18;;;;;;;8.30;5.73;;;11.40;99.90;;;;;;5093279;28;20160;-84
2021/04/09 10:10:50;;;;;;;8.97;6.77;;;11.40;99.90;;;;;;5093488;28;20689;-81
2021/04/09 10:13:39;;;;;;;8.50;6.30;;;11.00;99.90;;;;;;5092776;28;20166;-80
2021/04/09 10:16:10;;;;;;;9.13;6.67;;;11.00;99.90;;;;;;5088952;28;20177;-83
2021/04/09 10:18:37;;;;;;;11.10;6.70;;;11.00;99.90;;;;;;5075100;28;20229;-83
2021/04/09 10:21:17;;;;;;;9.90;6.30;;;11.20;99.90;;;;;;5072770;28;20178;-79
2021/04/09 10:23:45;;;;;;;9.90;5.87;;;11.40;99.90;;;;;;5054914;28;20299;-83
2021/04/09 10:26:11;;;;;;;9.83;5.77;;;11.50;1.00;;;;;;5058000;28;20176;-84
2021/04/09 10:28:39;;;;;;;10.13;6.43;;;11.60;99.90;;;;;;5064957;28;20188;-80
2021/04/09 10:31:23;;;;;;;9.43;6.37;;;11.60;1.00;;;;;;5066678;28;20703;-82
2021/04/09 10:33:54;;;;;;;9.00;5.83;;;11.80;1.00;;;;;;5071580;28;20667;-78
2021/04/09 10:36:26;;;;;;;13.30;6.07;;;11.90;99.90;;;;;;5074849;28;20164;-81
2021/04/09 10:38:56;;;;;;;9.57;5.77;;;12.00;99.90;;;;;;5074299;28;20164;-81
2021/04/09 10:41:27;;;;;;;10.83;5.97;;;12.10;99.90;;;;;;5087249;28;20216;-84
2021/04/09 10:43:59;;;;;;;9.23;6.30;;;12.10;1.00;;;;;;5077138;28;20199;-83
2021/04/09 10:46:27;;;;;;;9.07;5.40;;;12.10;1.00;;;;;;5076562;28;20218;-87
2021/04/09 10:49:01;;;;;;;9.43;5.60;;;12.20;1.00;;;;;;5076682;28;20252;-84
2021/04/09 10:51:29;;;;;;;9.53;6.10;;;12.40;99.90;;;;;;5076336;28;20179;-80
2021/04/09 10:53:55;;;;;;;7.77;5.70;;;12.50;1.00;;;;;;5078710;28;20239;-79
2021/04/09 10:56:21;;;;;;;9.17;6.20;;;12.70;99.90;;;;;;5077704;28;20156;-81
2021/04/09 10:58:48;;;;;;;6.97;5.70;;;12.80;1.00;;;;;;5057934;28;20173;-79
2021/04/09 11:01:14;;;;;;;9.93;5.83;;;12.80;99.90;;;;;;5075870;28;20172;-80
2021/04/09 11:03:40;;;;;;;8.77;6.33;;;12.90;99.90;;;;;;5075816;28;20200;-84
2021/04/09 11:06:06;;;;;;;8.57;5.90;;;13.00;1.00;;;;;;5075974;28;20165;-81
2021/04/09 11:08:34;;;;;;;8.77;5.43;;;12.80;99.90;;;;;;5075230;28;20164;-88
2021/04/09 11:11:02;;;;;;;9.80;6.13;;;13.00;1.00;;;;;;5075446;28;20168;-81
2021/04/09 11:13:32;;;;;;;8.77;5.43;;;13.20;99.90;;;;;;5075421;28;20251;-79
2021/04/09 11:15:58;;;;;;;7.37;5.07;;;13.30;21.90;;;;;;5078298;28;20180;-82
2021/04/09 11:18:43;;;;;;;9.57;5.97;;;13.50;1.00;;;;;;5091726;28;20254;-79
2021/04/09 11:21:09;;;;;;;10.13;6.07;;;13.60;1.00;;;;;;5095606;28;20254;-86
2021/04/09 11:23:39;;;;;;;11.07;6.27;;;13.70;1.00;;;;;;5095051;28;20656;-86
2021/04/09 11:26:19;;;;;;;9.53;5.37;;;13.90;1.00;;;;;;5095121;28;20204;-85
2021/04/09 11:28:54;;;;;;;7.77;5.20;;;13.90;1.00;;;;;;5095104;28;20268;-85
2021/04/09 11:31:26;;;;;;;10.83;5.83;;;14.00;1.00;;;;;;5094862;28;20192;-84
2021/04/09 11:34:02;;;;;;;7.90;5.70;;;14.10;99.90;;;;;;5085871;28;20168;-79
2021/04/09 11:36:28;;;;;;;6.63;5.47;;;14.50;1.00;;;;;;5074844;28;20160;-80
2021/04/09 11:39:09;;;;;;;7.60;6.00;;;14.50;1.00;;;;;;5074276;28;20468;-86
2021/04/09 11:41:36;;;;;;;7.20;5.53;;;14.50;1.00;;;;;;5074479;28;20171;-83
2021/04/09 11:44:27;;;;;;;8.53;5.80;;;14.50;1.00;;;;;;5074541;28;20671;-79
2021/04/09 11:46:54;;;;;;;8.30;5.93;;;14.40;56.60;;;;;;5065142;28;20197;-81
2021/04/09 11:49:29;;;;;;;8.63;5.80;;;14.40;1.00;;;;;;5055716;28;20176;-84
2021/04/09 11:51:59;;;;;;;9.13;6.50;;;14.40;1.00;;;;;;5074115;28;20620;-81
2021/04/09 11:54:33;;;;;;;9.57;5.30;;;14.70;17.10;;;;;;5056243;28;20637;-82
2021/04/09 11:56:59;;;;;;;7.37;5.30;;;14.80;1.00;;;;;;5075058;28;20244;-78
2021/04/09 11:59:25;;;;;;;9.37;5.70;;;14.40;99.90;;;;;;5074404;28;20244;-78
2021/04/09 12:01:52;;;;;;;9.53;5.87;;;14.30;62.50;;;;;;5074254;28;20293;-77
2021/04/09 12:04:37;;;;;;;6.97;5.00;;;14.30;1.00;;;;;;5074181;28;20234;-78
2021/04/09 12:07:13;;;;;;;11.33;6.60;;;14.50;99.90;;;;;;5055949;28;20710;-80
2021/04/09 12:09:40;;;;;;;8.33;5.83;;;14.60;99.90;;;;;;5073992;28;20160;-77
2021/04/09 12:12:08;;;;;;;7.27;5.50;;;14.60;1.00;;;;;;5074089;28;20592;-79
2021/04/09 12:14:42;;;;;;;9.23;5.40;;;14.40;99.90;;;;;;5073621;28;20208;-79
2021/04/09 12:17:10;;;;;;;8.90;5.40;;;14.30;99.90;;;;;;5083044;28;20267;-78
2021/04/09 12:19:36;;;;;;;7.87;5.27;;;14.40;99.90;;;;;;5073960;28;20168;-83
2021/04/09 12:22:03;;;;;;;7.20;5.30;;;14.50;1.00;;;;;;5067542;28;20180;-83
2021/04/09 12:24:29;;;;;;;7.60;5.27;;;14.60;1.00;;;;;;5083629;28;20215;-83
2021/04/09 12:26:54;;;;;;;12.43;5.77;;;14.60;1.00;;;;;;5075844;28;20177;-86
2021/04/09 12:29:20;;;;;;;8.80;5.83;;;14.60;99.90;;;;;;5085908;28;20240;-79
2021/04/09 12:31:46;;;;;;;8.80;5.37;;;14.70;1.00;;;;;;5073841;28;20263;-84
2021/04/09 12:34:13;;;;;;;9.87;6.60;;;14.70;1.00;;;;;;5073348;28;20191;-80
2021/04/09 12:36:39;;;;;;;7.97;5.83;;;14.50;1.00;;;;;;5071724;28;20612;-81
2021/04/09 12:39:11;;;;;;;8.20;6.30;;;14.50;1.00;;;;;;5056434;28;20180;-86
2021/04/09 12:41:37;;;;;;;8.73;6.80;;;14.50;1.00;;;;;;5056113;28;20168;-88
2021/04/09 12:44:05;;;;;;;8.97;6.63;;;14.60;1.00;;;;;;5072380;28;20208;-79
2021/04/09 12:46:31;;;;;;;8.97;6.63;;;14.70;1.00;;;;;;5072467;28;20173;-83
2021/04/09 12:48:57;;;;;;;8.33;6.73;;;14.80;1.00;;;;;;5074045;28;20223;-81
2021/04/09 12:51:24;;;;;;;11.30;7.23;;;14.90;1.00;;;;;;5073160;28;20632;-88
2021/04/09 12:53:50;;;;;;;11.00;7.03;;;14.80;1.00;;;;;;5073738;28;20167;-81
2021/04/09 12:56:17;;;;;;;8.37;6.23;;;14.70;1.00;;;;;;5093639;28;20192;-83
2021/04/09 12:58:44;;;;;;;7.80;6.83;;;14.70;1.00;;;;;;5072128;28;20172;-87
2021/04/09 13:01:10;;;;;;;8.90;6.77;;;14.60;1.00;;;;;;5071628;28;20169;-83